createdAt,value
2018-08-20T00:02:00.676Z,100.00
2018-08-20T00:04:34.888Z,100.00
2018-08-20T00:07:03.812Z,100.00
2018-08-20T00:09:38.277Z,100.00
2018-08-20T00:12:08.439Z,100.00
2018-08-20T00:14:37.576Z,100.00
2018-08-20T00:17:06.543Z,100.00
2018-08-20T00:19:35.512Z,100.00
2018-08-20T00:22:04.384Z,100.00
2018-08-20T00:24:33.352Z,100.00
2018-08-20T00:27:03.352Z,100.00
2018-08-20T00:29:32.908Z,100.00
2018-08-20T00:32:01.756Z,100.00
2018-08-20T00:34:30.703Z,100.00
2018-08-20T00:36:59.559Z,100.00
2018-08-20T00:39:28.488Z,100.00
2018-08-20T00:41:57.501Z,100.00
2018-08-20T00:44:26.371Z,100.00
2018-08-20T00:46:55.287Z,100.00
2018-08-20T00:49:24.143Z,100.00
2018-08-20T00:51:53.153Z,100.00
2018-08-20T00:54:22.151Z,100.00
2018-08-20T00:56:51.072Z,100.00
2018-08-20T00:59:19.929Z,100.00
2018-08-20T01:01:48.907Z,100.00
2018-08-20T01:04:17.803Z,100.00
2018-08-20T01:06:46.660Z,100.00
2018-08-20T01:09:15.657Z,100.00
2018-08-20T01:11:44.647Z,100.00
2018-08-20T01:14:13.545Z,100.00
2018-08-20T01:16:42.453Z,100.00
2018-08-20T01:19:11.409Z,100.00
2018-08-20T01:21:40.428Z,100.00
2018-08-20T01:24:09.302Z,100.00
2018-08-20T01:26:38.232Z,100.00
2018-08-20T01:29:07.363Z,100.00
2018-08-20T01:31:36.317Z,100.00
2018-08-20T01:34:05.247Z,100.00
2018-08-20T01:36:34.062Z,100.00
2018-08-20T01:39:02.995Z,100.00
2018-08-20T01:41:32.026Z,100.00
2018-08-20T01:44:00.976Z,100.00
2018-08-20T01:46:29.893Z,100.00
2018-08-20T01:48:58.801Z,100.00
2018-08-20T01:51:27.674Z,100.00
2018-08-20T01:53:56.620Z,100.00
2018-08-20T01:56:25.540Z,100.00
2018-08-20T01:58:54.367Z,100.00
2018-08-20T02:01:23.364Z,100.00
2018-08-20T02:03:52.228Z,100.00
2018-08-20T02:06:22.033Z,100.00
2018-08-20T02:08:50.968Z,100.00
2018-08-20T02:11:19.904Z,100.00
2018-08-20T02:13:48.861Z,100.00
2018-08-20T02:16:17.717Z,100.00
2018-08-20T02:18:46.641Z,100.00
2018-08-20T02:21:15.492Z,100.00
2018-08-20T02:23:44.420Z,100.00
2018-08-20T02:26:13.621Z,100.00
2018-08-20T02:28:42.476Z,100.00
2018-08-20T02:31:11.345Z,100.00
2018-08-20T02:33:40.211Z,100.00
2018-08-20T02:36:09.112Z,100.00
2018-08-20T02:38:37.967Z,100.00
2018-08-20T02:41:06.996Z,100.00
2018-08-20T02:43:36.859Z,100.00
2018-08-20T02:46:05.675Z,100.00
2018-08-20T02:48:34.584Z,100.00
2018-08-20T02:51:03.444Z,100.00
2018-08-20T02:53:32.314Z,100.00
2018-08-20T02:56:01.212Z,100.00
2018-08-20T02:58:30.048Z,100.00
2018-08-20T03:00:58.931Z,100.00
2018-08-20T03:03:27.855Z,100.00
2018-08-20T03:05:56.716Z,100.00
2018-08-20T03:08:25.674Z,100.00
2018-08-20T03:10:54.524Z,100.00
2018-08-20T03:13:23.458Z,100.00
2018-08-20T03:15:52.493Z,100.00
2018-08-20T03:18:21.369Z,100.00
2018-08-20T03:20:50.224Z,100.00
2018-08-20T03:23:19.148Z,100.00
2018-08-20T03:25:48.043Z,100.00
2018-08-20T03:28:17.125Z,100.00
2018-08-20T03:30:45.985Z,100.00
2018-08-20T03:33:14.861Z,100.00
2018-08-20T03:35:43.732Z,100.00
2018-08-20T03:38:12.664Z,100.00
2018-08-20T03:40:41.628Z,100.00
2018-08-20T03:43:10.568Z,100.00
2018-08-20T03:45:39.489Z,100.00
2018-08-20T03:48:08.644Z,100.00
2018-08-20T03:50:37.539Z,100.00
2018-08-20T03:53:06.526Z,100.00
2018-08-20T03:55:35.421Z,100.00
2018-08-20T03:58:04.444Z,100.00
2018-08-20T04:00:33.287Z,100.00
2018-08-20T04:03:02.209Z,100.00
2018-08-20T04:05:31.133Z,100.00
2018-08-20T04:07:59.987Z,100.00
2018-08-20T04:10:28.844Z,100.00
2018-08-20T04:12:57.840Z,100.00
2018-08-20T04:15:26.687Z,100.00
2018-08-20T04:17:55.659Z,100.00
2018-08-20T04:20:24.576Z,100.00
2018-08-20T04:22:53.556Z,100.00
2018-08-20T04:25:22.499Z,100.00
2018-08-20T04:27:51.436Z,100.00
2018-08-20T04:30:21.320Z,100.00
2018-08-20T04:32:50.172Z,98.85
2018-08-20T04:35:19.070Z,99.47
2018-08-20T04:37:48.040Z,97.96
2018-08-20T04:40:16.979Z,99.23
2018-08-20T04:42:45.799Z,98.24
2018-08-20T04:45:14.715Z,99.25
2018-08-20T04:47:43.601Z,97.17
2018-08-20T04:50:12.925Z,97.32
2018-08-20T04:52:42.068Z,96.26
2018-08-20T04:55:11.160Z,98.06
2018-08-20T04:57:40.133Z,96.22
2018-08-20T05:00:10.667Z,95.14
2018-08-20T05:02:39.681Z,96.85
2018-08-20T05:05:08.829Z,93.35
2018-08-20T05:07:37.627Z,93.26
2018-08-20T05:10:06.646Z,93.41
2018-08-20T05:12:35.596Z,91.17
2018-08-20T05:15:04.605Z,92.23
2018-08-20T05:17:33.475Z,92.42
2018-08-20T05:20:02.416Z,91.17
2018-08-20T05:22:31.303Z,89.15
2018-08-20T05:25:00.202Z,89.38
2018-08-20T05:27:29.085Z,90.52
2018-08-20T05:29:58.584Z,88.83
2018-08-20T05:32:27.424Z,87.94
2018-08-20T05:34:56.284Z,87.74
2018-08-20T05:37:25.156Z,88.46
2018-08-20T05:39:53.959Z,85.62
2018-08-20T05:42:23.503Z,85.71
2018-08-20T05:44:52.478Z,86.26
2018-08-20T05:47:21.359Z,85.11
2018-08-20T05:49:50.273Z,85.49
2018-08-20T05:52:19.071Z,83.88
2018-08-20T05:54:47.960Z,81.83
2018-08-20T05:57:16.945Z,81.07
2018-08-20T05:59:45.900Z,82.61
2018-08-20T06:02:14.912Z,81.91
2018-08-20T06:04:43.935Z,82.09
2018-08-20T06:07:13.732Z,79.70
2018-08-20T06:09:42.708Z,81.56
2018-08-20T06:12:11.539Z,80.49
2018-08-20T06:14:40.577Z,80.71
2018-08-20T06:17:09.509Z,79.96
2018-08-20T06:19:38.480Z,80.38
2018-08-20T06:22:07.442Z,79.58
2018-08-20T06:24:36.324Z,78.25
2018-08-20T06:27:05.301Z,77.29
2018-08-20T06:29:34.276Z,75.74
2018-08-20T06:32:03.177Z,77.11
2018-08-20T06:34:32.087Z,77.27
2018-08-20T06:37:00.904Z,77.10
2018-08-20T06:39:29.776Z,76.77
2018-08-20T06:41:58.845Z,75.91
2018-08-20T06:44:27.715Z,74.24
2018-08-20T06:46:56.560Z,74.39
2018-08-20T06:49:25.431Z,75.67
2018-08-20T06:51:54.279Z,74.63
2018-08-20T06:54:23.161Z,75.07
2018-08-20T06:56:52.168Z,72.81
2018-08-20T06:59:21.065Z,72.92
2018-08-20T07:01:49.981Z,71.82
2018-08-20T07:04:18.916Z,71.16
2018-08-20T07:06:47.850Z,71.18
2018-08-20T07:09:16.929Z,69.61
2018-08-20T07:11:46.803Z,70.78
2018-08-20T07:14:16.601Z,67.29
2018-08-20T07:16:45.536Z,66.47
2018-08-20T07:19:14.440Z,66.01
2018-08-20T07:21:43.356Z,67.20
2018-08-20T07:24:12.312Z,67.30
2018-08-20T07:26:41.230Z,67.83
2018-08-20T07:29:10.118Z,69.32
2018-08-20T07:31:39.036Z,68.05
2018-08-20T07:34:08.075Z,69.52
2018-08-20T07:36:36.861Z,66.35
2018-08-20T07:39:06.180Z,64.54
2018-08-20T07:41:35.176Z,64.00
2018-08-20T07:44:04.100Z,64.05
2018-08-20T07:46:32.973Z,60.24
2018-08-20T07:49:06.058Z,57.38
2018-08-20T07:51:34.980Z,57.23
2018-08-20T07:54:04.116Z,59.62
2018-08-20T07:56:32.956Z,61.02
2018-08-20T07:59:01.834Z,60.74
2018-08-20T08:01:30.740Z,59.94
2018-08-20T08:03:59.780Z,60.79
2018-08-20T08:06:28.679Z,60.03
2018-08-20T08:08:57.708Z,61.77
2018-08-20T08:11:26.616Z,61.68
2018-08-20T08:13:55.501Z,60.81
2018-08-20T08:16:24.588Z,61.74
2018-08-20T08:18:53.599Z,61.08
2018-08-20T08:21:22.541Z,61.03
2018-08-20T08:23:51.585Z,58.87
2018-08-20T08:26:20.478Z,60.68
2018-08-20T08:28:49.371Z,59.12
2018-08-20T08:31:18.889Z,56.85
2018-08-20T08:33:47.760Z,56.90
2018-08-20T08:36:16.712Z,54.11
2018-08-20T08:38:45.736Z,54.10
2018-08-20T08:41:14.652Z,57.87
2018-08-20T08:43:44.188Z,58.88
2018-08-20T08:46:13.160Z,58.19
2018-08-20T08:48:42.084Z,57.54
2018-08-20T08:51:11.096Z,59.41
2018-08-20T08:53:39.963Z,59.90
2018-08-20T08:56:08.872Z,59.86
2018-08-20T08:58:37.836Z,57.64
2018-08-20T09:01:06.719Z,57.92
2018-08-20T09:03:35.620Z,57.27
2018-08-20T09:06:04.700Z,58.19
2018-08-20T09:08:33.616Z,58.26
2018-08-20T09:11:02.543Z,58.22
2018-08-20T09:13:31.520Z,59.23
2018-08-20T09:16:00.416Z,59.69
2018-08-20T09:18:29.532Z,60.05
2018-08-20T09:20:59.188Z,61.69
2018-08-20T09:23:28.088Z,62.25
2018-08-20T09:25:56.983Z,62.27
2018-08-20T09:28:26.008Z,63.44
2018-08-20T09:30:54.895Z,62.64
2018-08-20T09:33:23.724Z,62.92
2018-08-20T09:35:52.651Z,63.20
2018-08-20T09:38:21.776Z,62.13
2018-08-20T09:40:50.680Z,63.43
2018-08-20T09:43:19.583Z,65.63
2018-08-20T09:45:48.533Z,64.50
2018-08-20T09:48:18.268Z,64.82
2018-08-20T09:50:47.308Z,65.81
2018-08-20T09:53:16.321Z,63.57
2018-08-20T09:55:45.148Z,63.37
2018-08-20T09:58:14.088Z,65.84
2018-08-20T10:00:42.924Z,65.15
2018-08-20T10:03:11.984Z,65.59
2018-08-20T10:05:41.127Z,66.51
2018-08-20T10:08:10.357Z,67.79
2018-08-20T10:10:39.235Z,69.18
2018-08-20T10:13:08.169Z,67.01
2018-08-20T10:15:37.088Z,68.42
2018-08-20T10:18:06.443Z,62.77
2018-08-20T10:20:35.356Z,62.91
2018-08-20T10:23:04.305Z,61.48
2018-08-20T10:25:33.195Z,60.00
2018-08-20T10:28:02.069Z,58.07
2018-08-20T10:30:31.016Z,58.38
2018-08-20T10:33:00.058Z,56.68
2018-08-20T10:35:29.012Z,58.34
2018-08-20T10:37:57.937Z,58.00
2018-08-20T10:40:28.016Z,56.05
2018-08-20T10:42:56.960Z,55.32
2018-08-20T10:45:30.944Z,54.27
2018-08-20T10:47:59.891Z,54.12
2018-08-20T10:50:28.747Z,54.52
2018-08-20T10:52:57.639Z,53.67
2018-08-20T10:55:26.482Z,55.13
2018-08-20T10:57:55.349Z,55.77
2018-08-20T11:00:24.304Z,55.86
2018-08-20T11:02:53.208Z,55.69
2018-08-20T11:05:22.236Z,54.99
2018-08-20T11:07:51.152Z,55.61
2018-08-20T11:10:20.016Z,55.75
2018-08-20T11:12:48.920Z,56.11
2018-08-20T11:15:17.773Z,57.37
2018-08-20T11:17:46.782Z,56.93
2018-08-20T11:20:16.788Z,57.34
2018-08-20T11:22:45.965Z,58.02
2018-08-20T11:25:14.920Z,57.26
2018-08-20T11:27:43.911Z,56.87
2018-08-20T11:30:13.981Z,57.57
2018-08-20T11:32:42.870Z,55.85
2018-08-20T11:35:12.244Z,56.16
2018-08-20T11:37:41.194Z,56.68
2018-08-20T11:40:10.441Z,57.07
2018-08-20T11:42:39.510Z,56.96
2018-08-20T11:45:10.728Z,56.95
2018-08-20T11:47:39.610Z,56.39
2018-08-20T11:50:08.635Z,56.79
2018-08-20T11:52:38.201Z,56.05
2018-08-20T11:55:07.134Z,57.05
2018-08-20T11:57:36.213Z,58.25
2018-08-20T12:00:06.200Z,57.55
2018-08-20T12:02:35.181Z,56.12
2018-08-20T12:05:04.277Z,56.00
2018-08-20T12:07:33.258Z,56.29
2018-08-20T12:10:02.188Z,56.23
2018-08-20T12:12:31.156Z,56.45
2018-08-20T12:15:00.024Z,55.16
2018-08-20T12:17:28.926Z,55.30
2018-08-20T12:19:57.856Z,53.74
2018-08-20T12:22:26.840Z,54.01
2018-08-20T12:24:55.639Z,55.94
2018-08-20T12:27:24.637Z,56.25
2018-08-20T12:29:53.604Z,56.48
2018-08-20T12:32:22.663Z,56.90
2018-08-20T12:34:51.579Z,56.85
2018-08-20T12:37:20.649Z,55.20
2018-08-20T12:39:49.652Z,54.72
2018-08-20T12:42:18.726Z,53.70
2018-08-20T12:44:47.772Z,53.88
2018-08-20T12:47:16.812Z,55.25
2018-08-20T12:49:46.010Z,53.89
2018-08-20T12:52:14.831Z,53.06
2018-08-20T12:54:43.767Z,51.17
2018-08-20T12:57:12.705Z,50.56
2018-08-20T12:59:41.576Z,50.82
2018-08-20T13:02:10.432Z,52.67
2018-08-20T13:04:39.336Z,52.57
2018-08-20T13:07:08.406Z,51.91
2018-08-20T13:09:37.400Z,51.18
2018-08-20T13:12:06.566Z,51.67
2018-08-20T13:14:35.542Z,50.41
2018-08-20T13:17:04.750Z,51.49
2018-08-20T13:19:33.631Z,50.31
2018-08-20T13:22:02.546Z,50.40
2018-08-20T13:24:31.502Z,50.65
2018-08-20T13:27:00.507Z,51.76
2018-08-20T13:29:29.700Z,51.51
2018-08-20T13:31:58.543Z,51.65
2018-08-20T13:34:27.724Z,53.08
2018-08-20T13:36:56.800Z,52.04
2018-08-20T13:39:25.788Z,51.25
2018-08-20T13:41:54.880Z,51.67
2018-08-20T13:44:24.050Z,53.29
2018-08-20T13:46:52.942Z,53.07
2018-08-20T13:49:21.792Z,53.34
2018-08-20T13:51:51.824Z,52.46
2018-08-20T13:54:20.752Z,50.40
2018-08-20T13:56:49.661Z,48.84
2018-08-20T13:59:18.591Z,47.83
2018-08-20T14:01:48.329Z,45.33
2018-08-20T14:04:17.277Z,44.99
2018-08-20T14:06:46.164Z,43.31
2018-08-20T14:09:15.092Z,42.32
2018-08-20T14:11:44.060Z,39.91
2018-08-20T14:14:12.905Z,40.94
2018-08-20T14:16:41.856Z,40.37
2018-08-20T14:19:10.900Z,41.05
2018-08-20T14:21:40.372Z,38.85
2018-08-20T14:24:09.340Z,39.03
2018-08-20T14:26:38.173Z,40.24
2018-08-20T14:29:07.097Z,40.45
2018-08-20T14:31:36.059Z,39.40
2018-08-20T14:34:05.076Z,40.54
2018-08-20T14:36:33.989Z,39.64
2018-08-20T14:39:02.923Z,39.04
2018-08-20T14:41:31.888Z,39.71
2018-08-20T14:44:00.735Z,42.16
2018-08-20T14:46:29.640Z,40.54
2018-08-20T14:48:58.504Z,39.98
2018-08-20T14:51:27.461Z,40.68
2018-08-20T14:53:56.379Z,40.30
2018-08-20T14:56:25.288Z,38.93
2018-08-20T14:58:54.300Z,37.87
2018-08-20T15:01:23.262Z,36.69
2018-08-20T15:03:58.482Z,35.20
2018-08-20T15:06:27.440Z,36.77
2018-08-20T15:08:56.402Z,38.09
2018-08-20T15:11:25.368Z,37.61
2018-08-20T15:13:54.296Z,37.62
2018-08-20T15:16:23.236Z,38.46
2018-08-20T15:18:52.198Z,39.36
2018-08-20T15:21:21.015Z,39.65
2018-08-20T15:23:50.037Z,40.60
2018-08-20T15:26:18.961Z,39.18
2018-08-20T15:28:47.896Z,38.17
2018-08-20T15:31:17.480Z,38.84
2018-08-20T15:33:46.332Z,40.19
2018-08-20T15:36:15.436Z,41.56
2018-08-20T15:38:44.344Z,40.18
2018-08-20T15:41:13.483Z,39.83
2018-08-20T15:43:42.356Z,40.62
2018-08-20T15:46:11.284Z,40.91
2018-08-20T15:48:40.149Z,41.23
2018-08-20T15:51:09.100Z,42.61
2018-08-20T15:53:37.980Z,40.41
2018-08-20T15:56:06.905Z,41.01
2018-08-20T15:58:36.312Z,40.37
2018-08-20T16:01:05.189Z,41.43
2018-08-20T16:03:34.152Z,41.34
2018-08-20T16:06:03.080Z,39.82
2018-08-20T16:08:32.276Z,40.09
2018-08-20T16:11:01.170Z,40.18
2018-08-20T16:13:30.084Z,41.26
2018-08-20T16:15:59.087Z,41.30
2018-08-20T16:18:28.005Z,40.57
2018-08-20T16:20:56.924Z,41.58
2018-08-20T16:23:25.870Z,41.09
2018-08-20T16:25:54.700Z,43.63
2018-08-20T16:28:23.711Z,42.20
2018-08-20T16:30:52.534Z,44.01
2018-08-20T16:33:21.594Z,44.70
2018-08-20T16:35:50.688Z,44.84
2018-08-20T16:38:19.483Z,43.51
2018-08-20T16:40:48.396Z,44.73
2018-08-20T16:43:17.364Z,46.68
2018-08-20T16:45:46.242Z,47.76
2018-08-20T16:48:15.124Z,48.60
2018-08-20T16:50:44.951Z,49.66
2018-08-20T16:53:14.151Z,48.63
2018-08-20T16:55:43.185Z,48.49
2018-08-20T16:58:12.070Z,49.94
2018-08-20T17:00:41.068Z,50.42
2018-08-20T17:03:11.495Z,51.16
2018-08-20T17:05:50.576Z,53.32
2018-08-20T17:08:23.684Z,52.26
2018-08-20T17:10:52.932Z,52.81
2018-08-20T17:13:21.865Z,53.84
2018-08-20T17:15:50.836Z,54.06
2018-08-20T17:18:19.790Z,54.16
2018-08-20T17:20:48.942Z,53.03
2018-08-20T17:23:21.052Z,54.81
2018-08-20T17:25:50.121Z,54.93
2018-08-20T17:28:23.596Z,54.37
2018-08-20T17:30:57.206Z,55.07
2018-08-20T17:33:26.328Z,54.77
2018-08-20T17:35:55.293Z,55.58
2018-08-20T17:38:24.092Z,55.64
2018-08-20T17:40:52.967Z,56.21
2018-08-20T17:43:21.852Z,57.10
2018-08-20T17:45:50.986Z,58.75
2018-08-20T17:48:25.043Z,58.68
2018-08-20T17:50:53.945Z,57.83
2018-08-20T17:53:22.833Z,58.75
2018-08-20T17:55:51.744Z,59.08
2018-08-20T17:58:20.688Z,58.54
2018-08-20T18:00:53.448Z,58.54
2018-08-20T18:03:26.408Z,59.00
2018-08-20T18:06:06.355Z,58.08
2018-08-20T18:08:35.616Z,59.09
2018-08-20T18:11:05.085Z,59.29
2018-08-20T18:13:44.997Z,59.01
2018-08-20T18:16:17.985Z,59.82
2018-08-20T18:18:49.944Z,60.68
2018-08-20T18:21:19.083Z,61.46
2018-08-20T18:23:48.020Z,61.95
2018-08-20T18:26:17.216Z,61.95
2018-08-20T18:28:51.944Z,64.00
2018-08-20T18:31:23.433Z,65.47
2018-08-20T18:33:52.380Z,65.77
2018-08-20T18:36:23.247Z,65.51
2018-08-20T18:39:00.836Z,65.57
2018-08-20T18:42:20.612Z,66.47
2018-08-20T18:44:50.091Z,67.03
2018-08-20T18:47:19.658Z,67.90
2018-08-20T18:49:53.608Z,68.95
2018-08-20T18:52:23.485Z,68.49
2018-08-20T18:54:53.459Z,68.20
2018-08-20T18:57:24.664Z,70.07
2018-08-20T18:59:54.452Z,70.50
2018-08-20T19:02:36.712Z,71.15
2018-08-20T19:05:07.396Z,68.05
2018-08-20T19:07:36.325Z,70.13
2018-08-20T19:10:06.877Z,70.83
2018-08-20T19:12:35.805Z,70.24
2018-08-20T19:17:28.201Z,69.43
2018-08-20T19:20:01.540Z,70.26
2018-08-20T19:22:31.028Z,70.40
2018-08-20T19:24:59.984Z,71.08
2018-08-20T19:27:30.220Z,70.52
2018-08-20T19:30:03.067Z,70.45
2018-08-20T19:32:31.951Z,69.36
2018-08-20T19:35:00.844Z,70.27
2018-08-20T19:37:29.647Z,70.10
2018-08-20T19:39:58.489Z,68.68
2018-08-20T19:42:33.369Z,69.19
2018-08-20T19:45:03.277Z,67.59
2018-08-20T19:47:32.132Z,68.65
2018-08-20T19:50:01.240Z,69.15
2018-08-20T19:52:30.253Z,69.14
2018-08-20T19:55:07.033Z,69.17
2018-08-20T19:57:36.241Z,69.24
2018-08-20T20:00:07.627Z,69.30
2018-08-20T20:02:36.696Z,70.10
2018-08-20T20:05:06.800Z,69.54
2018-08-20T20:07:37.084Z,69.21
2018-08-20T20:10:13.900Z,70.10
2018-08-20T20:12:47.911Z,68.42
2018-08-20T20:15:16.892Z,68.64
2018-08-20T20:17:45.776Z,70.24
2018-08-20T20:20:14.639Z,70.05
2018-08-20T20:22:43.748Z,70.11
2018-08-20T20:25:12.676Z,68.84
2018-08-20T20:27:41.643Z,68.79
2018-08-20T20:30:10.568Z,69.41
2018-08-20T20:32:39.540Z,69.54
2018-08-20T20:35:09.849Z,69.88
2018-08-20T20:37:38.816Z,68.48
2018-08-20T20:40:08.125Z,69.25
2018-08-20T20:42:37.032Z,70.05
2018-08-20T20:45:05.947Z,70.17
2018-08-20T20:47:34.966Z,70.53
2018-08-20T20:50:03.884Z,70.07
2018-08-20T20:52:32.789Z,70.47
2018-08-20T20:55:01.773Z,71.36
2018-08-20T20:57:30.753Z,71.89
2018-08-20T20:59:59.796Z,70.97
2018-08-20T21:02:28.605Z,70.14
2018-08-20T21:05:01.620Z,70.57
2018-08-20T21:07:33.633Z,70.92
2018-08-20T21:10:02.619Z,71.26
2018-08-20T21:12:32.297Z,70.89
2018-08-20T21:15:01.476Z,71.85
2018-08-20T21:17:34.068Z,72.88
2018-08-20T21:20:03.284Z,74.41
2018-08-20T21:22:33.436Z,74.17
2018-08-20T21:25:02.275Z,75.72
2018-08-20T21:27:31.200Z,74.28
2018-08-20T21:30:01.234Z,75.10
2018-08-20T21:32:30.312Z,76.85
2018-08-20T21:34:59.228Z,77.40
2018-08-20T21:37:28.151Z,76.62
2018-08-20T21:39:57.106Z,77.60
2018-08-20T21:42:32.180Z,77.31
2018-08-20T21:45:01.081Z,78.32
2018-08-20T21:47:31.266Z,77.07
2018-08-20T21:50:00.315Z,77.62
2018-08-20T21:52:29.288Z,80.13
2018-08-20T21:54:58.145Z,79.21
2018-08-20T21:57:27.223Z,78.55
2018-08-20T22:00:03.408Z,80.05
2018-08-20T22:02:33.216Z,80.34
2018-08-20T22:05:02.264Z,79.50
2018-08-20T22:07:31.211Z,79.57
2018-08-20T22:10:00.268Z,79.27
2018-08-20T22:12:29.203Z,78.80
2018-08-20T22:14:58.116Z,78.53
2018-08-20T22:17:30.880Z,79.30
2018-08-20T22:20:00.131Z,80.16
2018-08-20T22:22:29.151Z,81.05
2018-08-20T22:25:01.011Z,81.10
2018-08-20T22:27:31.300Z,79.08
2018-08-20T22:30:03.188Z,79.62
2018-08-20T22:32:33.588Z,81.37
2018-08-20T22:35:02.544Z,80.82
2018-08-20T22:37:31.581Z,79.78
2018-08-20T22:40:07.588Z,79.45
2018-08-20T22:42:46.790Z,80.41
2018-08-20T22:45:16.763Z,81.98
2018-08-20T22:47:46.476Z,82.02
2018-08-20T22:50:15.417Z,80.61
2018-08-20T22:52:45.505Z,80.93
2018-08-20T22:55:16.004Z,81.83
2018-08-20T22:57:51.900Z,82.78
2018-08-20T23:00:23.520Z,81.57
2018-08-20T23:02:53.650Z,82.73
2018-08-20T23:05:22.751Z,81.65
2018-08-20T23:07:51.902Z,83.21
2018-08-20T23:10:20.892Z,82.58
2018-08-20T23:12:51.219Z,81.48
2018-08-20T23:15:20.180Z,81.40
2018-08-20T23:17:49.105Z,80.62
2018-08-20T23:20:23.285Z,82.46
2018-08-20T23:22:52.131Z,81.59
2018-08-20T23:25:20.968Z,81.82
2018-08-20T23:27:51.126Z,82.38
2018-08-20T23:30:20.403Z,82.23
2018-08-20T23:32:49.524Z,82.80
2018-08-20T23:35:18.376Z,81.37
2018-08-20T23:37:47.252Z,82.30
2018-08-20T23:40:16.092Z,81.96
2018-08-20T23:42:45.068Z,81.27
2018-08-20T23:45:14.113Z,81.08
2018-08-20T23:47:42.935Z,81.02
2018-08-20T23:50:11.844Z,79.90
2018-08-20T23:52:40.683Z,81.14
2018-08-20T23:55:09.656Z,80.72
2018-08-20T23:57:38.605Z,80.67
